Time,TemperatureF,DewpointF,PressureIn,WindDirection,WindDirectionDegrees,WindSpeedMPH,WindSpeedGustMPH,Humidity,HourlyPrecipIn,Conditions,Clouds,dailyrainin,SolarRadiationWatts/m^2,SoftwareType,DateUTC
2013-05-26 00:11:00,39.0,28.0,-100.00,ENE,77,3.0,7.0,64,0.00,,,0.00,0.000000,,2013-05-26 06:11:00,
2013-05-26 00:21:00,39.0,28.0,-100.00,ENE,77,3.0,7.0,64,0.00,,,0.00,0.000000,,2013-05-26 06:21:00,
2013-05-26 00:32:00,39.0,28.0,-100.00,ENE,77,3.0,7.0,64,0.00,,,0.00,0.000000,,2013-05-26 06:32:00,
2013-05-26 00:41:00,39.0,28.0,-100.00,ENE,77,3.0,7.0,64,0.00,,,0.00,0.000000,,2013-05-26 06:41:00,
2013-05-26 00:51:00,39.0,28.0,-100.00,ENE,77,3.0,7.0,64,0.00,,,0.00,0.000000,,2013-05-26 06:51:00,
2013-05-26 00:52:00,37.0,25.0,-100.00,ENE,72,5.0,10.0,61,0.00,,,0.00,0.000000,,2013-05-26 06:52:00,
2013-05-26 01:11:00,37.0,25.0,-100.00,ENE,72,5.0,10.0,61,0.00,,,0.00,0.000000,,2013-05-26 07:11:00,
2013-05-26 01:21:00,37.0,25.0,-100.00,ENE,72,5.0,10.0,61,0.00,,,0.00,0.000000,,2013-05-26 07:21:00,
2013-05-26 01:31:00,37.0,25.0,-100.00,ENE,72,5.0,10.0,61,0.00,,,0.00,0.000000,,2013-05-26 07:31:00,
2013-05-26 01:42:00,37.0,25.0,-100.00,ENE,72,5.0,10.0,61,0.00,,,0.00,0.000000,,2013-05-26 07:42:00,
2013-05-26 01:52:00,36.0,25.0,-100.00,ENE,75,6.0,11.0,64,0.00,,,0.00,0.000000,,2013-05-26 07:52:00,
2013-05-26 02:11:00,36.0,25.0,-100.00,ENE,75,6.0,11.0,64,0.00,,,0.00,0.000000,,2013-05-26 08:11:00,
2013-05-26 02:21:00,36.0,25.0,-100.00,ENE,75,6.0,11.0,64,0.00,,,0.00,0.000000,,2013-05-26 08:21:00,
2013-05-26 02:32:00,36.0,25.0,-100.00,ENE,75,6.0,11.0,64,0.00,,,0.00,0.000000,,2013-05-26 08:32:00,
2013-05-26 02:42:00,36.0,25.0,-100.00,ENE,75,6.0,11.0,64,0.00,,,0.00,0.000000,,2013-05-26 08:42:00,
2013-05-26 02:52:00,37.0,26.0,-100.00,ENE,69,4.0,9.0,65,0.00,,,0.00,0.000000,,2013-05-26 08:52:00,
2013-05-26 03:11:00,37.0,26.0,-100.00,ENE,69,4.0,9.0,65,0.00,,,0.00,0.000000,,2013-05-26 09:11:00,
2013-05-26 03:21:00,37.0,26.0,-100.00,ENE,69,4.0,9.0,65,0.00,,,0.00,0.000000,,2013-05-26 09:21:00,
2013-05-26 03:33:00,37.0,26.0,-100.00,ENE,69,4.0,9.0,65,0.00,,,0.00,0.000000,,2013-05-26 09:33:00,
2013-05-26 03:42:00,37.0,26.0,-100.00,ENE,69,4.0,9.0,65,0.00,,,0.00,0.000000,,2013-05-26 09:42:00,
2013-05-26 03:52:00,34.0,25.0,-100.00,ENE,72,4.0,7.0,70,0.00,,,0.00,0.000000,,2013-05-26 09:52:00,
2013-05-26 04:12:00,34.0,25.0,-100.00,ENE,72,4.0,7.0,70,0.00,,,0.00,0.000000,,2013-05-26 10:12:00,
2013-05-26 04:22:00,34.0,25.0,-100.00,ENE,72,4.0,7.0,70,0.00,,,0.00,0.000000,,2013-05-26 10:22:00,
2013-05-26 04:32:00,34.0,25.0,-100.00,ENE,72,4.0,7.0,70,0.00,,,0.00,0.000000,,2013-05-26 10:32:00,
2013-05-26 04:42:00,34.0,25.0,-100.00,ENE,72,4.0,7.0,70,0.00,,,0.00,0.000000,,2013-05-26 10:42:00,
2013-05-26 04:52:00,35.0,27.0,-100.00,East,83,0.0,8.0,73,0.00,,,0.00,0.000000,,2013-05-26 10:52:00,
2013-05-26 05:11:00,35.0,27.0,-100.00,East,83,0.0,8.0,73,0.00,,,0.00,0.000000,,2013-05-26 11:11:00,
2013-05-26 05:22:00,35.0,27.0,-100.00,East,83,0.0,8.0,73,0.00,,,0.00,0.000000,,2013-05-26 11:22:00,
2013-05-26 05:32:00,35.0,27.0,-100.00,East,83,0.0,8.0,73,0.00,,,0.00,0.000000,,2013-05-26 11:32:00,
2013-05-26 05:42:00,35.0,27.0,-100.00,East,83,0.0,8.0,73,0.00,,,0.00,0.000000,,2013-05-26 11:42:00,
2013-05-26 05:52:00,34.0,26.0,-100.00,East,85,1.0,5.0,72,0.00,,,0.00,0.000000,,2013-05-26 11:52:00,
2013-05-26 06:11:00,34.0,26.0,-100.00,East,85,1.0,5.0,72,0.00,,,0.00,0.000000,,2013-05-26 12:11:00,
2013-05-26 06:21:00,34.0,26.0,-100.00,East,85,1.0,5.0,72,0.00,,,0.00,0.000000,,2013-05-26 12:21:00,
2013-05-26 06:32:00,34.0,26.0,-100.00,East,85,1.0,5.0,72,0.00,,,0.00,0.000000,,2013-05-26 12:32:00,
2013-05-26 06:41:00,34.0,26.0,-100.00,East,85,1.0,5.0,72,0.00,,,0.00,0.000000,,2013-05-26 12:41:00,
2013-05-26 06:52:00,36.0,27.0,-100.00,ENE,71,6.0,10.0,70,0.00,,,0.00,29.000000,,2013-05-26 12:52:00,
2013-05-26 07:11:00,36.0,27.0,-100.00,ENE,71,6.0,10.0,70,0.00,,,0.00,29.000000,,2013-05-26 13:11:00,
2013-05-26 07:21:00,36.0,27.0,-100.00,ENE,71,6.0,10.0,70,0.00,,,0.00,29.000000,,2013-05-26 13:21:00,
2013-05-26 07:32:00,36.0,27.0,-100.00,ENE,71,6.0,10.0,70,0.00,,,0.00,29.000000,,2013-05-26 13:32:00,
2013-05-26 07:42:00,36.0,27.0,-100.00,ENE,71,6.0,10.0,70,0.00,,,0.00,29.000000,,2013-05-26 13:42:00,
2013-05-26 08:11:00,40.0,29.0,-100.00,ENE,67,3.0,9.0,64,0.00,,,0.00,97.000000,,2013-05-26 14:11:00,
2013-05-26 08:21:00,40.0,29.0,-100.00,ENE,67,3.0,9.0,64,0.00,,,0.00,97.000000,,2013-05-26 14:21:00,
2013-05-26 08:32:00,40.0,29.0,-100.00,ENE,67,3.0,9.0,64,0.00,,,0.00,97.000000,,2013-05-26 14:32:00,
2013-05-26 08:41:00,40.0,29.0,-100.00,ENE,67,3.0,9.0,64,0.00,,,0.00,97.000000,,2013-05-26 14:41:00,
2013-05-26 08:51:00,40.0,29.0,-100.00,ENE,67,3.0,9.0,64,0.00,,,0.00,97.000000,,2013-05-26 14:51:00,
2013-05-26 08:52:00,46.0,32.0,-100.00,East,84,0.0,4.0,58,0.00,,,0.00,185.000000,,2013-05-26 14:52:00,
2013-05-26 09:12:00,46.0,32.0,-100.00,East,84,0.0,4.0,58,0.00,,,0.00,185.000000,,2013-05-26 15:12:00,
2013-05-26 09:22:00,46.0,32.0,-100.00,East,84,0.0,4.0,58,0.00,,,0.00,185.000000,,2013-05-26 15:22:00,
2013-05-26 09:33:00,46.0,32.0,-100.00,East,84,0.0,4.0,58,0.00,,,0.00,185.000000,,2013-05-26 15:33:00,
2013-05-26 09:43:00,46.0,32.0,-100.00,East,84,0.0,4.0,58,0.00,,,0.00,185.000000,,2013-05-26 15:43:00,
2013-05-26 09:52:00,45.0,31.0,-100.00,NW,309,1.0,8.0,57,0.00,,,0.00,208.000000,,2013-05-26 15:52:00,
2013-05-26 10:12:00,45.0,31.0,-100.00,NW,309,1.0,8.0,57,0.00,,,0.00,208.000000,,2013-05-26 16:12:00,
2013-05-26 10:23:00,45.0,31.0,-100.00,NW,309,1.0,8.0,57,0.00,,,0.00,208.000000,,2013-05-26 16:23:00,
2013-05-26 10:33:00,45.0,31.0,-100.00,NW,309,1.0,8.0,57,0.00,,,0.00,208.000000,,2013-05-26 16:33:00,
2013-05-26 10:42:00,45.0,31.0,-100.00,NW,309,1.0,8.0,57,0.00,,,0.00,208.000000,,2013-05-26 16:42:00,
2013-05-26 10:52:00,52.0,33.0,-100.00,West,260,3.0,10.0,48,0.00,,,0.00,399.000000,,2013-05-26 16:52:00,
2013-05-26 11:11:00,52.0,33.0,-100.00,West,260,3.0,10.0,48,0.00,,,0.00,399.000000,,2013-05-26 17:11:00,
2013-05-26 11:22:00,52.0,33.0,-100.00,West,260,3.0,10.0,48,0.00,,,0.00,399.000000,,2013-05-26 17:22:00,
2013-05-26 11:32:00,52.0,33.0,-100.00,West,260,3.0,10.0,48,0.00,,,0.00,399.000000,,2013-05-26 17:32:00,
2013-05-26 11:42:00,52.0,33.0,-100.00,West,260,3.0,10.0,48,0.00,,,0.00,399.000000,,2013-05-26 17:42:00,
2013-05-26 11:52:00,54.0,33.0,-100.00,WNW,295,3.0,10.0,44,0.00,,,0.00,363.000000,,2013-05-26 17:52:00,
2013-05-26 12:12:00,54.0,33.0,-100.00,WNW,295,3.0,10.0,44,0.00,,,0.00,363.000000,,2013-05-26 18:12:00,
2013-05-26 12:21:00,54.0,33.0,-100.00,WNW,295,3.0,10.0,44,0.00,,,0.00,363.000000,,2013-05-26 18:21:00,
2013-05-26 12:31:00,54.0,33.0,-100.00,WNW,295,3.0,10.0,44,0.00,,,0.00,363.000000,,2013-05-26 18:31:00,
2013-05-26 12:42:00,54.0,33.0,-100.00,WNW,295,3.0,10.0,44,0.00,,,0.00,363.000000,,2013-05-26 18:42:00,
2013-05-26 12:52:00,59.0,35.0,-100.00,West,266,4.0,10.0,40,0.00,,,0.00,432.000000,,2013-05-26 18:52:00,
2013-05-26 13:11:00,59.0,35.0,-100.00,West,266,4.0,10.0,40,0.00,,,0.00,432.000000,,2013-05-26 19:11:00,
2013-05-26 13:22:00,59.0,35.0,-100.00,West,266,4.0,10.0,40,0.00,,,0.00,432.000000,,2013-05-26 19:22:00,
2013-05-26 13:32:00,59.0,35.0,-100.00,West,266,4.0,10.0,40,0.00,,,0.00,432.000000,,2013-05-26 19:32:00,
2013-05-26 13:42:00,59.0,35.0,-100.00,West,266,4.0,10.0,40,0.00,,,0.00,432.000000,,2013-05-26 19:42:00,
2013-05-26 13:52:00,61.0,29.0,-100.00,WSW,253,5.0,12.0,29,0.00,,,0.00,551.000000,,2013-05-26 19:52:00,
2013-05-26 14:11:00,61.0,29.0,-100.00,WSW,253,5.0,12.0,29,0.00,,,0.00,551.000000,,2013-05-26 20:11:00,
2013-05-26 14:21:00,61.0,29.0,-100.00,WSW,253,5.0,12.0,29,0.00,,,0.00,551.000000,,2013-05-26 20:21:00,
2013-05-26 14:32:00,61.0,29.0,-100.00,WSW,253,5.0,12.0,29,0.00,,,0.00,551.000000,,2013-05-26 20:32:00,
2013-05-26 14:41:00,61.0,29.0,-100.00,WSW,253,5.0,12.0,29,0.00,,,0.00,551.000000,,2013-05-26 20:41:00,
2013-05-26 14:52:00,64.0,28.0,-100.00,WNW,286,5.0,11.0,26,0.00,,,0.00,529.000000,,2013-05-26 20:52:00,
2013-05-26 15:11:00,64.0,28.0,-100.00,WNW,286,5.0,11.0,26,0.00,,,0.00,529.000000,,2013-05-26 21:11:00,
2013-05-26 15:22:00,64.0,28.0,-100.00,WNW,286,5.0,11.0,26,0.00,,,0.00,529.000000,,2013-05-26 21:22:00,
2013-05-26 15:33:00,64.0,28.0,-100.00,WNW,286,5.0,11.0,26,0.00,,,0.00,529.000000,,2013-05-26 21:33:00,
2013-05-26 15:43:00,64.0,28.0,-100.00,WNW,286,5.0,11.0,26,0.00,,,0.00,529.000000,,2013-05-26 21:43:00,
2013-05-26 15:52:00,57.0,25.0,-100.00,SSE,164,16.0,34.0,29,0.00,,,0.00,230.000000,,2013-05-26 21:52:00,
2013-05-26 16:12:00,57.0,25.0,-100.00,SSE,164,16.0,34.0,29,0.00,,,0.00,230.000000,,2013-05-26 22:12:00,
2013-05-26 16:23:00,57.0,25.0,-100.00,SSE,164,16.0,34.0,29,0.00,,,0.00,230.000000,,2013-05-26 22:23:00,
2013-05-26 17:11:00,59.0,24.0,-100.00,WSW,239,8.0,28.0,26,0.00,,,0.00,225.000000,,2013-05-26 23:11:00,
2013-05-26 17:22:00,59.0,24.0,-100.00,WSW,239,8.0,28.0,26,0.00,,,0.00,225.000000,,2013-05-26 23:22:00,
2013-05-26 17:32:00,59.0,24.0,-100.00,WSW,239,8.0,28.0,26,0.00,,,0.00,225.000000,,2013-05-26 23:32:00,
2013-05-26 17:42:00,59.0,24.0,-100.00,WSW,239,8.0,28.0,26,0.00,,,0.00,225.000000,,2013-05-26 23:42:00,
2013-05-26 17:51:00,59.0,24.0,-100.00,WSW,239,8.0,28.0,26,0.00,,,0.00,225.000000,,2013-05-26 23:51:00,
2013-05-26 17:52:00,58.0,23.0,-100.00,WSW,243,6.0,15.0,26,0.00,,,0.00,164.000000,,2013-05-26 23:52:00,
2013-05-26 18:11:00,58.0,23.0,-100.00,WSW,243,6.0,15.0,26,0.00,,,0.00,164.000000,,2013-05-27 00:11:00,
2013-05-26 18:21:00,58.0,23.0,-100.00,WSW,243,6.0,15.0,26,0.00,,,0.00,164.000000,,2013-05-27 00:21:00,
2013-05-26 18:31:00,58.0,23.0,-100.00,WSW,243,6.0,15.0,26,0.00,,,0.00,164.000000,,2013-05-27 00:31:00,
2013-05-26 18:41:00,58.0,23.0,-100.00,WSW,243,6.0,15.0,26,0.00,,,0.00,164.000000,,2013-05-27 00:41:00,
2013-05-26 18:52:00,58.0,29.0,-100.00,NW,306,8.0,18.0,33,0.00,,,0.00,144.000000,,2013-05-27 00:52:00,
2013-05-26 19:11:00,58.0,29.0,-100.00,NW,306,8.0,18.0,33,0.00,,,0.00,144.000000,,2013-05-27 01:11:00,
2013-05-26 19:22:00,58.0,29.0,-100.00,NW,306,8.0,18.0,33,0.00,,,0.00,144.000000,,2013-05-27 01:22:00,
2013-05-26 19:31:00,58.0,29.0,-100.00,NW,306,8.0,18.0,33,0.00,,,0.00,144.000000,,2013-05-27 01:31:00,
2013-05-26 19:42:00,58.0,29.0,-100.00,NW,306,8.0,18.0,33,0.00,,,0.00,144.000000,,2013-05-27 01:42:00,
2013-05-26 19:52:00,58.0,29.0,-100.00,West,268,0.0,13.0,33,0.00,,,0.00,129.000000,,2013-05-27 01:52:00,
2013-05-26 20:11:00,58.0,29.0,-100.00,West,268,0.0,13.0,33,0.00,,,0.00,129.000000,,2013-05-27 02:11:00,
2013-05-26 20:21:00,58.0,29.0,-100.00,West,268,0.0,13.0,33,0.00,,,0.00,129.000000,,2013-05-27 02:21:00,
2013-05-26 20:32:00,58.0,29.0,-100.00,West,268,0.0,13.0,33,0.00,,,0.00,129.000000,,2013-05-27 02:32:00,
2013-05-26 20:42:00,58.0,29.0,-100.00,West,268,0.0,13.0,33,0.00,,,0.00,129.000000,,2013-05-27 02:42:00,
2013-05-26 20:52:00,54.0,29.0,-100.00,ENE,78,0.0,3.0,38,0.00,,,0.00,44.000000,,2013-05-27 02:52:00,
2013-05-26 21:11:00,54.0,29.0,-100.00,ENE,78,0.0,3.0,38,0.00,,,0.00,44.000000,,2013-05-27 03:11:00,
2013-05-26 21:21:00,54.0,29.0,-100.00,ENE,78,0.0,3.0,38,0.00,,,0.00,44.000000,,2013-05-27 03:21:00,
2013-05-26 21:33:00,54.0,29.0,-100.00,ENE,78,0.0,3.0,38,0.00,,,0.00,44.000000,,2013-05-27 03:33:00,
2013-05-26 21:42:00,54.0,29.0,-100.00,ENE,78,0.0,3.0,38,0.00,,,0.00,44.000000,,2013-05-27 03:42:00,
2013-05-26 21:52:00,47.0,31.0,-100.00,East,95,0.0,5.0,53,0.00,,,0.00,0.000000,,2013-05-27 03:52:00,
2013-05-26 22:12:00,47.0,31.0,-100.00,East,95,0.0,5.0,53,0.00,,,0.00,0.000000,,2013-05-27 04:12:00,
2013-05-26 22:23:00,47.0,31.0,-100.00,East,95,0.0,5.0,53,0.00,,,0.00,0.000000,,2013-05-27 04:23:00,
2013-05-26 22:33:00,47.0,31.0,-100.00,East,95,0.0,5.0,53,0.00,,,0.00,0.000000,,2013-05-27 04:33:00,
2013-05-26 22:42:00,47.0,31.0,-100.00,East,95,0.0,5.0,53,0.00,,,0.00,0.000000,,2013-05-27 04:42:00,
2013-05-26 22:52:00,45.0,30.0,-100.00,ENE,73,3.0,7.0,56,0.00,,,0.00,0.000000,,2013-05-27 04:52:00,
2013-05-26 23:12:00,45.0,30.0,-100.00,ENE,73,3.0,7.0,56,0.00,,,0.00,0.000000,,2013-05-27 05:12:00,
2013-05-26 23:22:00,45.0,30.0,-100.00,ENE,73,3.0,7.0,56,0.00,,,0.00,0.000000,,2013-05-27 05:22:00,
2013-05-26 23:32:00,45.0,30.0,-100.00,ENE,73,3.0,7.0,56,0.00,,,0.00,0.000000,,2013-05-27 05:32:00,
2013-05-26 23:42:00,45.0,30.0,-100.00,ENE,73,3.0,7.0,56,0.00,,,0.00,0.000000,,2013-05-27 05:42:00,
2013-05-26 23:52:00,41.0,33.0,-100.00,NNW,337,9.0,25.0,74,0.00,,,0.00,0.000000,,2013-05-27 05:52:00,